Ana Sayfa
METAR-TAF:

METAR-TAF

Havaalanları :

Brenner Field

Falls City, Nebraska, Amerika Birleşik Devletleri

Enlem: 40-04-44N, Boylam: 095-35-31W, yükseklik: 300 m

Güncel hava durumu gözlemi

Rapor saat 11:53 UTC de 49 dakika önce yapıldı.
Rüzgar güneydoğudan 7 kt
Sıcaklık 9°C
Nem 57%
Basınç 1016 hPa
Görüş mesafesi: 16.1 km
Açık gökyüzü

METAR: KFNB 131153Z AUTO 13007KT 10SM CLR 09/01 A2999 RMK AO2 SLP153 T00890011 10111 20078 56021

Saat: 07:42 (12:42 UTC)


TAF: eksik

4.000'den fazla havaalanı için hava durumu gözlemleri ve tahminleri (METAR ve TAF raporları).

Kullanılabilir istasyonlar harita üzerinde sarı ve kırmızı noktalarla gösterilir.

İstasyonun adını görmek için fareyi noktanın üzerinde gezdirin.

Sonrasında hava gözlem ve tahminlerini görmek için tıklayın.

Haritayı değiştirmek için: yaklaştırmak için siyah artı işaretli yeşil düğmeye ve uzaklaştırmak için de eksi işaretli düğmeye hızla tıklayın; bitişik haritalar için yeşil okları kullanın.


METAR-TAF: